Time,TemperatureF,DewpointF,PressureIn,WindDirection,WindDirectionDegrees,WindSpeedMPH,WindSpeedGustMPH,Humidity,HourlyPrecipIn,Conditions,Clouds,dailyrainin,SoftwareType,DateUTC
2013-03-22 00:00:00,70.3,61.7,29.71,West,270,0.0,1.6,74,0.00,,---,0.00,VWS V14.01,2013-03-21 13:00:00,
2013-03-22 00:05:00,70.3,61.7,29.71,WNW,292,2.0,2.7,74,0.00,,---,0.00,VWS V14.01,2013-03-21 13:05:00,
2013-03-22 00:10:00,70.3,62.0,29.71,WNW,292,0.0,1.6,75,0.00,,---,0.00,VWS V14.01,2013-03-21 13:10:00,
2013-03-22 00:15:00,70.2,61.9,29.71,NNW,338,2.5,2.5,75,0.00,,---,0.00,VWS V14.01,2013-03-21 13:15:00,
2013-03-22 00:20:00,70.2,61.9,29.68,NNE,22,1.3,2.0,75,0.00,,---,0.00,VWS V14.01,2013-03-21 13:20:00,
2013-03-22 00:25:00,70.0,61.7,29.68,SE,135,4.0,4.9,75,0.00,,---,0.00,VWS V14.01,2013-03-21 13:25:00,
2013-03-22 00:30:00,70.0,61.7,29.68,North,0,3.6,3.6,75,0.00,,---,0.00,VWS V14.01,2013-03-21 13:30:00,
2013-03-22 00:35:00,70.0,61.7,29.68,West,270,0.0,2.0,75,0.00,,---,0.00,VWS V14.01,2013-03-21 13:35:00,
2013-03-22 00:40:00,70.0,61.7,29.68,ENE,68,0.9,0.9,75,0.00,,---,0.00,VWS V14.01,2013-03-21 13:40:00,
2013-03-22 00:45:00,70.0,61.7,29.68,SSE,158,2.5,2.5,75,0.00,,---,0.00,VWS V14.01,2013-03-21 13:45:00,
2013-03-22 00:50:00,70.0,61.7,29.68,NE,45,0.9,0.9,75,0.00,,---,0.00,VWS V14.01,2013-03-21 13:50:00,
2013-03-22 00:55:00,70.0,61.7,29.68,NW,315,3.4,3.4,75,0.00,,---,0.00,VWS V14.01,2013-03-21 13:55:00,
2013-03-22 01:00:00,70.0,61.7,29.68,ESE,112,2.7,2.7,75,0.00,,---,0.00,VWS V14.01,2013-03-21 14:00:00,
2013-03-22 01:05:00,70.0,61.7,29.68,NE,45,1.1,2.7,75,0.00,,---,0.00,VWS V14.01,2013-03-21 14:05:00,
2013-03-22 01:10:00,70.0,61.7,29.68,North,0,2.7,2.7,75,0.00,,---,0.00,VWS V14.01,2013-03-21 14:10:00,
2013-03-22 01:15:00,70.0,61.7,29.68,WNW,292,6.0,6.0,75,0.00,,---,0.00,VWS V14.01,2013-03-21 14:15:00,
2013-03-22 01:20:00,69.8,61.5,29.68,North,0,0.0,1.3,75,0.00,,---,0.00,VWS V14.01,2013-03-21 14:20:00,
2013-03-22 01:25:00,69.8,61.5,29.68,North,0,2.0,2.0,75,0.00,,---,0.00,VWS V14.01,2013-03-21 14:25:00,
2013-03-22 01:30:00,69.8,61.5,29.68,East,90,2.2,2.2,75,0.00,,---,0.00,VWS V14.01,2013-03-21 14:30:00,
2013-03-22 01:35:00,69.6,61.7,29.68,NW,315,0.9,0.9,76,0.00,,---,0.00,VWS V14.01,2013-03-21 14:35:00,
2013-03-22 01:40:00,69.6,61.7,29.68,WNW,292,1.1,1.1,76,0.00,,---,0.00,VWS V14.01,2013-03-21 14:40:00,
2013-03-22 01:45:00,69.4,61.5,29.68,NNE,22,1.6,1.6,76,0.00,,---,0.00,VWS V14.01,2013-03-21 14:45:00,
2013-03-22 01:50:00,69.4,61.5,29.68,NE,45,3.6,3.6,76,0.00,,---,0.00,VWS V14.01,2013-03-21 14:50:00,
2013-03-22 01:55:00,69.4,61.5,29.68,SW,225,0.0,0.0,76,0.00,,---,0.00,VWS V14.01,2013-03-21 14:55:00,
2013-03-22 02:00:00,69.4,61.5,29.68,ENE,68,1.6,1.6,76,0.00,,---,0.00,VWS V14.01,2013-03-21 15:00:00,
2013-03-22 02:05:00,69.3,61.4,29.68,NW,315,0.9,1.3,76,0.00,,---,0.00,VWS V14.01,2013-03-21 15:05:00,
2013-03-22 02:10:00,69.3,61.4,29.68,East,90,0.9,0.9,76,0.00,,---,0.00,VWS V14.01,2013-03-21 15:10:00,
2013-03-22 02:15:00,69.3,61.4,29.68,North,0,4.9,4.9,76,0.00,,---,0.00,VWS V14.01,2013-03-21 15:15:00,
2013-03-22 02:20:00,69.1,61.2,29.68,WNW,292,2.7,2.7,76,0.00,,---,0.00,VWS V14.01,2013-03-21 15:20:00,
2013-03-22 02:25:00,69.1,61.6,29.68,North,0,0.0,3.1,77,0.00,,---,0.00,VWS V14.01,2013-03-21 15:25:00,
2013-03-22 02:30:00,68.7,61.6,29.68,East,90,1.1,1.1,78,0.00,,---,0.00,VWS V14.01,2013-03-21 15:30:00,
2013-03-22 02:35:00,68.7,61.6,29.68,NNW,338,2.0,2.0,78,0.00,,---,0.00,VWS V14.01,2013-03-21 15:35:00,
2013-03-22 02:40:00,68.7,61.6,29.68,North,0,0.0,2.7,78,0.00,,---,0.00,VWS V14.01,2013-03-21 15:40:00,
2013-03-22 02:45:00,68.5,61.4,29.68,NE,45,2.5,2.5,78,0.00,,---,0.00,VWS V14.01,2013-03-21 15:45:00,
2013-03-22 02:50:00,68.5,61.4,29.65,East,90,0.9,2.7,78,0.00,,---,0.00,VWS V14.01,2013-03-21 15:50:00,
2013-03-22 02:55:00,68.5,61.4,29.65,SE,135,1.6,2.2,78,0.00,,---,0.00,VWS V14.01,2013-03-21 15:55:00,
2013-03-22 03:00:00,68.4,61.6,29.65,North,0,2.2,2.2,79,0.00,,---,0.00,VWS V14.01,2013-03-21 16:00:00,
2013-03-22 03:05:00,68.2,61.8,29.65,NNE,22,3.1,3.1,80,0.00,,---,0.00,VWS V14.01,2013-03-21 16:05:00,
2013-03-22 03:10:00,68.2,61.4,29.65,NNW,338,2.5,2.5,79,0.00,,---,0.00,VWS V14.01,2013-03-21 16:10:00,
2013-03-22 03:15:00,68.2,61.4,29.68,NNE,22,1.6,2.7,79,0.00,,---,0.00,VWS V14.01,2013-03-21 16:15:00,
2013-03-22 03:20:00,68.0,61.6,29.68,North,0,1.1,2.2,80,0.00,,---,0.00,VWS V14.01,2013-03-21 16:20:00,
2013-03-22 03:25:00,68.0,61.6,29.68,NW,315,0.0,3.6,80,0.00,,---,0.00,VWS V14.01,2013-03-21 16:25:00,
2013-03-22 03:30:00,68.0,61.6,29.68,NNW,338,4.0,4.0,80,0.00,,---,0.00,VWS V14.01,2013-03-21 16:30:00,
2013-03-22 03:35:00,67.8,61.8,29.65,West,270,1.3,5.4,81,0.00,,---,0.00,VWS V14.01,2013-03-21 16:35:00,
2013-03-22 03:40:00,67.8,61.8,29.65,NNE,22,6.0,6.0,81,0.00,,---,0.00,VWS V14.01,2013-03-21 16:40:00,
2013-03-22 03:45:00,67.8,61.4,29.65,NW,315,2.5,2.5,80,0.00,,---,0.00,VWS V14.01,2013-03-21 16:45:00,
2013-03-22 03:50:00,68.0,61.6,29.65,North,0,3.8,3.8,80,0.00,,---,0.00,VWS V14.01,2013-03-21 16:50:00,
2013-03-22 03:55:00,68.0,61.2,29.65,NNE,22,4.7,4.7,79,0.00,,---,0.00,VWS V14.01,2013-03-21 16:55:00,
2013-03-22 04:00:00,68.0,61.6,29.65,NW,315,3.4,3.4,80,0.00,,---,0.00,VWS V14.01,2013-03-21 17:00:00,
2013-03-22 04:05:00,68.0,61.6,29.68,NE,45,1.6,2.7,80,0.00,,---,0.00,VWS V14.01,2013-03-21 17:05:00,
2013-03-22 04:10:00,68.2,61.8,29.68,NNW,338,4.0,4.0,80,0.00,,---,0.00,VWS V14.01,2013-03-21 17:10:00,
2013-03-22 04:15:00,68.2,61.8,29.68,North,0,5.4,5.4,80,0.00,,---,0.00,VWS V14.01,2013-03-21 17:15:00,
2013-03-22 04:20:00,68.2,61.8,29.68,North,0,3.1,3.1,80,0.00,,---,0.00,VWS V14.01,2013-03-21 17:20:00,
2013-03-22 04:25:00,68.2,61.8,29.68,NW,315,6.5,6.5,80,0.00,,---,0.00,VWS V14.01,2013-03-21 17:25:00,
2013-03-22 04:30:00,68.4,61.6,29.68,NNW,338,3.6,3.6,79,0.00,,---,0.00,VWS V14.01,2013-03-21 17:30:00,
2013-03-22 04:35:00,68.4,61.6,29.65,WNW,292,4.3,4.3,79,0.00,,---,0.00,VWS V14.01,2013-03-21 17:35:00,
2013-03-22 04:40:00,68.4,62.0,29.65,NW,315,2.0,2.2,80,0.00,,---,0.00,VWS V14.01,2013-03-21 17:40:00,
2013-03-22 04:45:00,68.4,62.0,29.65,NW,315,3.6,3.6,80,0.00,,---,0.00,VWS V14.01,2013-03-21 17:45:00,
2013-03-22 04:50:00,68.4,61.6,29.65,WNW,292,2.0,2.0,79,0.00,,---,0.00,VWS V14.01,2013-03-21 17:50:00,
2013-03-22 04:55:00,68.4,62.0,29.65,North,0,5.6,5.6,80,0.00,,---,0.00,VWS V14.01,2013-03-21 17:55:00,
2013-03-22 05:00:00,68.4,61.6,29.65,North,0,4.0,4.0,79,0.00,,---,0.00,VWS V14.01,2013-03-21 18:00:00,
2013-03-22 05:05:00,68.4,61.6,29.68,NW,315,4.0,4.0,79,0.00,,---,0.00,VWS V14.01,2013-03-21 18:05:00,
2013-03-22 05:10:00,68.4,61.6,29.68,West,270,5.4,5.4,79,0.00,,---,0.00,VWS V14.01,2013-03-21 18:10:00,
2013-03-22 05:15:00,68.4,61.6,29.68,NW,315,3.4,3.4,79,0.00,,---,0.00,VWS V14.01,2013-03-21 18:15:00,
2013-03-22 05:20:00,68.4,61.6,29.65,North,0,7.2,7.4,79,0.00,,---,0.00,VWS V14.01,2013-03-21 18:20:00,
2013-03-22 05:25:00,68.4,61.6,29.65,WNW,292,3.4,4.5,79,0.00,,---,0.00,VWS V14.01,2013-03-21 18:25:00,
2013-03-22 05:30:00,68.4,61.2,29.65,NNW,338,2.2,2.2,78,0.00,,---,0.00,VWS V14.01,2013-03-21 18:30:00,
2013-03-22 05:35:00,68.4,61.2,29.68,NNW,338,2.9,4.0,78,0.00,,---,0.00,VWS V14.01,2013-03-21 18:35:00,
2013-03-22 05:40:00,68.4,61.2,29.68,NW,315,3.4,3.6,78,0.00,,---,0.00,VWS V14.01,2013-03-21 18:40:00,
2013-03-22 05:45:00,68.4,61.2,29.68,North,0,2.9,3.1,78,0.00,,---,0.00,VWS V14.01,2013-03-21 18:45:00,
2013-03-22 05:50:00,68.5,61.4,29.68,NNW,338,1.6,3.4,78,0.00,,---,0.00,VWS V14.01,2013-03-21 18:50:00,
2013-03-22 05:55:00,68.5,61.4,29.68,WNW,292,5.4,5.8,78,0.00,,---,0.00,VWS V14.01,2013-03-21 18:55:00,
2013-03-22 06:00:00,68.5,61.4,29.68,North,0,2.7,2.7,78,0.00,,---,0.00,VWS V14.01,2013-03-21 19:00:00,
2013-03-22 06:05:00,68.5,61.4,29.68,NNW,338,5.6,5.6,78,0.00,,---,0.00,VWS V14.01,2013-03-21 19:05:00,
2013-03-22 06:10:00,68.7,61.6,29.68,NW,315,6.3,6.3,78,0.00,,---,0.00,VWS V14.01,2013-03-21 19:10:00,
2013-03-22 06:15:00,68.7,61.2,29.68,WSW,248,1.1,3.6,77,0.00,,---,0.00,VWS V14.01,2013-03-21 19:15:00,
2013-03-22 06:20:00,68.7,61.2,29.68,WNW,292,1.6,3.4,77,0.00,,---,0.00,VWS V14.01,2013-03-21 19:20:00,
2013-03-22 06:25:00,68.7,61.2,29.68,WNW,292,4.9,4.9,77,0.00,,---,0.00,VWS V14.01,2013-03-21 19:25:00,
2013-03-22 06:30:00,68.9,61.4,29.68,WNW,292,0.9,3.4,77,0.00,,---,0.00,VWS V14.01,2013-03-21 19:30:00,
2013-03-22 06:35:00,68.9,61.0,29.68,WNW,292,3.6,3.6,76,0.00,,---,0.00,VWS V14.01,2013-03-21 19:35:00,
2013-03-22 06:40:00,69.1,61.2,29.68,NW,315,2.0,2.0,76,0.00,,---,0.00,VWS V14.01,2013-03-21 19:40:00,
2013-03-22 06:45:00,69.3,61.4,29.68,WNW,292,2.9,3.4,76,0.00,,---,0.00,VWS V14.01,2013-03-21 19:45:00,
2013-03-22 06:50:00,69.3,61.4,29.68,NW,315,4.0,4.0,76,0.00,,---,0.00,VWS V14.01,2013-03-21 19:50:00,
2013-03-22 06:55:00,69.4,61.5,29.68,NNW,338,2.9,3.8,76,0.00,,---,0.00,VWS V14.01,2013-03-21 19:55:00,
2013-03-22 07:00:00,69.4,61.5,29.68,WNW,292,3.6,3.6,76,0.00,,---,0.00,VWS V14.01,2013-03-21 20:00:00,
2013-03-22 07:05:00,69.6,61.7,29.68,WNW,292,7.6,7.6,76,0.00,,---,0.00,VWS V14.01,2013-03-21 20:05:00,
2013-03-22 07:10:00,69.6,61.7,29.68,West,270,2.5,3.1,76,0.00,,---,0.00,VWS V14.01,2013-03-21 20:10:00,
2013-03-22 07:15:00,69.8,61.5,29.68,NE,45,5.6,5.6,75,0.00,,---,0.00,VWS V14.01,2013-03-21 20:15:00,
2013-03-22 07:20:00,70.0,61.7,29.68,North,0,6.5,6.5,75,0.00,,---,0.00,VWS V14.01,2013-03-21 20:20:00,
2013-03-22 07:25:00,70.0,61.7,29.68,WNW,292,7.4,7.4,75,0.00,,---,0.00,VWS V14.01,2013-03-21 20:25:00,
2013-03-22 07:30:00,70.2,61.9,29.68,West,270,3.6,3.6,75,0.00,,---,0.00,VWS V14.01,2013-03-21 20:30:00,
2013-03-22 07:35:00,70.3,61.7,29.68,West,270,1.6,4.9,74,0.00,,---,0.00,VWS V14.01,2013-03-21 20:35:00,
2013-03-22 07:40:00,70.5,61.8,29.68,North,0,3.4,3.4,74,0.00,,---,0.00,VWS V14.01,2013-03-21 20:40:00,
2013-03-22 07:45:00,70.7,62.0,29.68,NW,315,5.6,5.6,74,0.00,,---,0.00,VWS V14.01,2013-03-21 20:45:00,
2013-03-22 07:50:00,70.7,62.0,29.68,West,270,7.4,7.4,74,0.00,,---,0.00,VWS V14.01,2013-03-21 20:50:00,
2013-03-22 07:55:00,71.1,62.0,29.68,NW,315,3.8,3.8,73,0.00,,---,0.00,VWS V14.01,2013-03-21 20:55:00,
2013-03-22 08:00:00,71.2,62.2,29.68,NW,315,10.3,10.3,73,0.00,,---,0.00,VWS V14.01,2013-03-21 21:00:00,
2013-03-22 08:05:00,71.6,62.1,29.68,NW,315,5.6,6.5,72,0.00,,---,0.00,VWS V14.01,2013-03-21 21:05:00,
2013-03-22 08:10:00,71.8,62.3,29.68,NNW,338,2.7,2.7,72,0.00,,---,0.00,VWS V14.01,2013-03-21 21:10:00,
2013-03-22 08:15:00,72.1,62.2,29.68,West,270,12.8,12.8,71,0.00,,---,0.00,VWS V14.01,2013-03-21 21:15:00,
2013-03-22 08:20:00,72.3,62.4,29.71,West,270,7.6,7.6,71,0.00,,---,0.00,VWS V14.01,2013-03-21 21:20:00,
2013-03-22 08:25:00,72.3,62.4,29.71,NNW,338,8.1,8.1,71,0.00,,---,0.00,VWS V14.01,2013-03-21 21:25:00,
2013-03-22 08:30:00,72.7,62.7,29.71,NW,315,8.5,8.5,71,0.00,,---,0.00,VWS V14.01,2013-03-21 21:30:00,
2013-03-22 08:35:00,72.9,62.5,29.71,NW,315,6.3,10.5,70,0.00,,---,0.00,VWS V14.01,2013-03-21 21:35:00,
2013-03-22 08:40:00,73.2,62.9,29.71,NW,315,9.8,9.8,70,0.00,,---,0.00,VWS V14.01,2013-03-21 21:40:00,
2013-03-22 08:45:00,73.6,62.8,29.71,WNW,292,13.0,13.0,69,0.00,,---,0.00,VWS V14.01,2013-03-21 21:45:00,
2013-03-22 08:50:00,73.9,63.1,29.71,West,270,10.1,14.8,69,0.00,,---,0.00,VWS V14.01,2013-03-21 21:50:00,
2013-03-22 08:55:00,74.1,63.3,29.71,NW,315,6.5,6.5,69,0.00,,---,0.00,VWS V14.01,2013-03-21 21:55:00,
2013-03-22 09:00:00,74.5,63.2,29.71,NW,315,6.9,12.3,68,0.00,,---,0.00,VWS V14.01,2013-03-21 22:00:00,
2013-03-22 09:05:00,74.8,63.6,29.71,NNW,338,5.8,9.8,68,0.00,,---,0.00,VWS V14.01,2013-03-21 22:05:00,
2013-03-22 09:10:00,75.0,63.3,29.71,NW,315,8.1,8.1,67,0.00,,---,0.00,VWS V14.01,2013-03-21 22:10:00,
2013-03-22 09:15:00,75.2,63.5,29.71,West,270,7.6,8.7,67,0.00,,---,0.00,VWS V14.01,2013-03-21 22:15:00,
2013-03-22 09:20:00,75.6,63.4,29.71,NW,315,5.6,5.6,66,0.00,,---,0.00,VWS V14.01,2013-03-21 22:20:00,
2013-03-22 09:25:00,75.6,63.4,29.71,NW,315,7.2,12.1,66,0.00,,---,0.00,VWS V14.01,2013-03-21 22:25:00,
2013-03-22 09:30:00,75.7,63.6,29.71,North,0,12.8,12.8,66,0.00,,---,0.00,VWS V14.01,2013-03-21 22:30:00,
2013-03-22 09:35:00,75.9,63.3,29.71,NW,315,13.0,13.0,65,0.00,,---,0.00,VWS V14.01,2013-03-21 22:35:00,
2013-03-22 09:40:00,75.9,63.3,29.71,West,270,13.2,13.2,65,0.00,,---,0.00,VWS V14.01,2013-03-21 22:40:00,
2013-03-22 09:45:00,76.3,63.7,29.71,WNW,292,6.9,6.9,65,0.00,,---,0.00,VWS V14.01,2013-03-21 22:45:00,
2013-03-22 09:50:00,76.5,63.8,29.71,SW,225,13.2,13.2,65,0.00,,---,0.00,VWS V14.01,2013-03-21 22:50:00,
2013-03-22 09:55:00,76.5,63.8,29.71,West,270,7.8,7.8,65,0.00,,---,0.00,VWS V14.01,2013-03-21 22:55:00,
2013-03-22 10:00:00,76.8,64.2,29.71,WNW,292,11.9,11.9,65,0.00,,---,0.00,VWS V14.01,2013-03-21 23:00:00,
2013-03-22 10:05:00,77.4,64.2,29.71,NW,315,10.1,10.1,64,0.00,,---,0.00,VWS V14.01,2013-03-21 23:05:00,
2013-03-22 10:10:00,77.5,64.4,29.71,North,0,9.6,10.5,64,0.00,,---,0.00,VWS V14.01,2013-03-21 23:10:00,
2013-03-22 10:15:00,78.1,64.5,29.71,NW,315,5.8,7.8,63,0.00,,---,0.00,VWS V14.01,2013-03-21 23:15:00,
2013-03-22 10:20:00,78.4,64.8,29.71,WNW,292,3.1,11.9,63,0.00,,---,0.00,VWS V14.01,2013-03-21 23:20:00,
2013-03-22 10:25:00,79.0,64.9,29.71,NW,315,6.3,6.3,62,0.00,,---,0.00,VWS V14.01,2013-03-21 23:25:00,
2013-03-22 10:30:00,79.3,65.2,29.71,NW,315,7.8,15.2,62,0.00,,---,0.00,VWS V14.01,2013-03-21 23:30:00,
2013-03-22 10:35:00,79.5,64.9,29.71,West,270,12.8,12.8,61,0.00,,---,0.00,VWS V14.01,2013-03-21 23:35:00,
2013-03-22 10:40:00,80.1,65.4,29.71,NNW,338,11.0,11.0,61,0.00,,---,0.00,VWS V14.01,2013-03-21 23:40:00,
2013-03-22 10:45:00,80.4,65.8,29.71,NNW,338,8.7,11.2,61,0.00,,---,0.00,VWS V14.01,2013-03-21 23:45:00,
2013-03-22 10:50:00,80.8,65.6,29.71,West,270,6.3,9.8,60,0.00,,---,0.00,VWS V14.01,2013-03-21 23:50:00,
2013-03-22 10:55:00,81.1,65.5,29.71,WSW,248,12.5,12.5,59,0.00,,---,0.00,VWS V14.01,2013-03-21 23:55:00,
2013-03-22 11:00:00,81.3,65.6,29.71,NE,45,6.3,6.3,59,0.00,,---,0.00,VWS V14.01,2013-03-22 00:00:00,
2013-03-22 11:05:00,81.7,66.0,29.71,WNW,292,15.9,15.9,59,0.00,,---,0.00,VWS V14.01,2013-03-22 00:05:00,
2013-03-22 11:10:00,81.9,66.1,29.71,North,0,10.3,13.0,59,0.00,,---,0.00,VWS V14.01,2013-03-22 00:10:00,
2013-03-22 11:15:00,82.4,66.2,29.71,NNW,338,10.5,13.2,58,0.00,,---,0.00,VWS V14.01,2013-03-22 00:15:00,
2013-03-22 11:20:00,82.6,65.8,29.68,West,270,16.6,19.7,57,0.00,,---,0.00,VWS V14.01,2013-03-22 00:20:00,
2013-03-22 11:25:00,82.9,66.2,29.68,NW,315,12.3,15.2,57,0.00,,---,0.00,VWS V14.01,2013-03-22 00:25:00,
2013-03-22 11:30:00,83.3,66.5,29.68,West,270,13.2,13.2,57,0.00,,---,0.00,VWS V14.01,2013-03-22 00:30:00,
2013-03-22 11:35:00,83.8,67.0,29.68,NW,315,9.4,11.0,57,0.00,,---,0.00,VWS V14.01,2013-03-22 00:35:00,
2013-03-22 11:40:00,84.0,67.2,29.68,West,270,8.7,8.7,57,0.00,,---,0.00,VWS V14.01,2013-03-22 00:40:00,
2013-03-22 11:45:00,84.4,67.0,29.68,North,0,13.0,13.2,56,0.00,,---,0.00,VWS V14.01,2013-03-22 00:45:00,
2013-03-22 11:50:00,84.7,66.8,29.68,WNW,292,12.3,12.3,55,0.00,,---,0.00,VWS V14.01,2013-03-22 00:50:00,
2013-03-22 11:55:00,84.9,65.9,29.68,NW,315,15.4,15.4,53,0.00,,---,0.00,VWS V14.01,2013-03-22 00:55:00,
2013-03-22 12:00:00,84.9,65.9,29.68,West,270,10.3,10.5,53,0.00,,---,0.00,VWS V14.01,2013-03-22 01:00:00,
2013-03-22 12:05:00,85.5,65.8,29.68,NW,315,10.3,10.3,52,0.00,,---,0.00,VWS V14.01,2013-03-22 01:05:00,
2013-03-22 12:10:00,85.8,65.1,29.68,WSW,248,6.3,6.5,50,0.00,,---,0.00,VWS V14.01,2013-03-22 01:10:00,
2013-03-22 12:15:00,86.4,66.7,29.68,NW,315,10.5,10.5,52,0.00,,---,0.00,VWS V14.01,2013-03-22 01:15:00,
2013-03-22 12:20:00,86.5,65.7,29.65,NNW,338,13.2,13.2,50,0.00,,---,0.00,VWS V14.01,2013-03-22 01:20:00,
2013-03-22 12:25:00,86.7,65.9,29.65,NW,315,10.3,10.3,50,0.00,,---,0.00,VWS V14.01,2013-03-22 01:25:00,
2013-03-22 12:30:00,87.1,66.2,29.65,NW,315,11.2,11.2,50,0.00,,---,0.00,VWS V14.01,2013-03-22 01:30:00,
2013-03-22 12:35:00,87.4,66.5,29.65,WNW,292,8.5,8.5,50,0.00,,---,0.00,VWS V14.01,2013-03-22 01:35:00,
2013-03-22 12:40:00,87.6,66.7,29.65,NNW,338,15.4,15.4,50,0.00,,---,0.00,VWS V14.01,2013-03-22 01:40:00,
2013-03-22 12:45:00,88.0,66.4,29.65,NNW,338,5.8,6.0,49,0.00,,---,0.00,VWS V14.01,2013-03-22 01:45:00,
2013-03-22 12:50:00,88.2,66.6,29.65,NW,315,9.8,9.8,49,0.00,,---,0.00,VWS V14.01,2013-03-22 01:50:00,
2013-03-22 12:55:00,88.5,66.3,29.65,West,270,6.5,10.3,48,0.00,,---,0.00,VWS V14.01,2013-03-22 01:55:00,
2013-03-22 13:00:00,88.7,66.5,29.65,NW,315,8.7,8.7,48,0.00,,---,0.00,VWS V14.01,2013-03-22 02:00:00,
2013-03-22 13:05:00,89.1,66.2,29.65,NNW,338,3.6,4.3,47,0.00,,---,0.00,VWS V14.01,2013-03-22 02:05:00,
2013-03-22 13:10:00,89.1,65.6,29.65,NNW,338,7.8,7.8,46,0.00,,---,0.00,VWS V14.01,2013-03-22 02:10:00,
2013-03-22 13:15:00,89.6,66.1,29.65,NW,315,5.8,5.8,46,0.00,,---,0.00,VWS V14.01,2013-03-22 02:15:00,
2013-03-22 13:20:00,90.0,66.4,29.62,SW,225,5.8,7.4,46,0.00,,---,0.00,VWS V14.01,2013-03-22 02:20:00,
2013-03-22 13:25:00,90.3,66.8,29.62,NNE,22,3.1,10.7,46,0.00,,---,0.00,VWS V14.01,2013-03-22 02:25:00,
2013-03-22 13:30:00,90.5,66.9,29.62,West,270,12.3,12.3,46,0.00,,---,0.00,VWS V14.01,2013-03-22 02:30:00,
2013-03-22 13:35:00,90.7,67.1,29.62,West,270,7.6,7.6,46,0.00,,---,0.00,VWS V14.01,2013-03-22 02:35:00,
2013-03-22 13:40:00,90.5,66.9,29.62,North,0,6.3,6.3,46,0.00,,---,0.00,VWS V14.01,2013-03-22 02:40:00,
2013-03-22 13:45:00,90.5,66.3,29.62,NW,315,5.6,5.6,45,0.00,,---,0.00,VWS V14.01,2013-03-22 02:45:00,
2013-03-22 13:50:00,90.9,66.6,29.62,WSW,248,9.6,9.6,45,0.00,,---,0.00,VWS V14.01,2013-03-22 02:50:00,
2013-03-22 13:55:00,90.7,66.4,29.62,WSW,248,4.0,5.8,45,0.00,,---,0.00,VWS V14.01,2013-03-22 02:55:00,
2013-03-22 14:00:00,91.0,66.1,29.62,NW,315,4.3,4.3,44,0.00,,---,0.00,VWS V14.01,2013-03-22 03:00:00,
2013-03-22 14:05:00,90.7,65.8,29.62,West,270,3.6,3.6,44,0.00,,---,0.00,VWS V14.01,2013-03-22 03:05:00,
2013-03-22 14:10:00,90.3,66.1,29.62,North,0,10.1,10.1,45,0.00,,---,0.00,VWS V14.01,2013-03-22 03:10:00,
2013-03-22 14:15:00,90.1,65.9,29.62,WNW,292,7.2,7.2,45,0.00,,---,0.00,VWS V14.01,2013-03-22 03:15:00,
2013-03-22 14:20:00,90.1,65.9,29.62,NNW,338,4.9,4.9,45,0.00,,---,0.00,VWS V14.01,2013-03-22 03:20:00,
2013-03-22 14:25:00,90.5,66.3,29.62,WNW,292,5.8,5.8,45,0.00,,---,0.00,VWS V14.01,2013-03-22 03:25:00,
2013-03-22 14:30:00,90.7,66.4,29.62,WNW,292,9.0,9.0,45,0.00,,---,0.00,VWS V14.01,2013-03-22 03:30:00,
2013-03-22 14:35:00,90.3,66.1,29.62,NNW,338,4.9,9.4,45,0.00,,---,0.00,VWS V14.01,2013-03-22 03:35:00,
2013-03-22 14:40:00,90.3,66.1,29.62,North,0,4.3,4.3,45,0.00,,---,0.00,VWS V14.01,2013-03-22 03:40:00,
2013-03-22 14:45:00,90.1,65.9,29.62,NW,315,11.9,11.9,45,0.00,,---,0.00,VWS V14.01,2013-03-22 03:45:00,
2013-03-22 14:50:00,90.0,65.8,29.62,NW,315,11.9,11.9,45,0.00,,---,0.00,VWS V14.01,2013-03-22 03:50:00,
2013-03-22 14:55:00,90.1,65.3,29.62,NW,315,8.5,8.5,44,0.00,,---,0.00,VWS V14.01,2013-03-22 03:55:00,
2013-03-22 15:00:00,90.1,65.3,29.62,North,0,6.3,6.3,44,0.00,,---,0.00,VWS V14.01,2013-03-22 04:00:00,
2013-03-22 15:05:00,90.1,65.3,29.62,WNW,292,8.5,8.7,44,0.00,,---,0.00,VWS V14.01,2013-03-22 04:05:00,
2013-03-22 15:10:00,89.4,65.3,29.62,North,0,5.4,8.5,45,0.00,,---,0.00,VWS V14.01,2013-03-22 04:10:00,
2013-03-22 15:15:00,89.1,64.3,29.62,NW,315,5.8,5.8,44,0.00,,---,0.00,VWS V14.01,2013-03-22 04:15:00,
2013-03-22 15:20:00,89.1,64.3,29.62,NW,315,10.3,10.3,44,0.00,,---,0.00,VWS V14.01,2013-03-22 04:20:00,
2013-03-22 15:25:00,88.7,64.0,29.62,North,0,4.0,5.4,44,0.00,,---,0.00,VWS V14.01,2013-03-22 04:25:00,
2013-03-22 15:30:00,88.2,64.2,29.62,WNW,292,12.5,12.5,45,0.00,,---,0.00,VWS V14.01,2013-03-22 04:30:00,
2013-03-22 15:35:00,87.8,63.8,29.62,WNW,292,4.3,4.3,45,0.00,,---,0.00,VWS V14.01,2013-03-22 04:35:00,
2013-03-22 15:40:00,87.6,63.7,29.62,WNW,292,6.3,6.3,45,0.00,,---,0.00,VWS V14.01,2013-03-22 04:40:00,
2013-03-22 15:45:00,87.4,64.1,29.62,NNW,338,7.8,7.8,46,0.00,,---,0.00,VWS V14.01,2013-03-22 04:45:00,
2013-03-22 15:50:00,87.6,64.3,29.62,North,0,9.4,9.4,46,0.00,,---,0.00,VWS V14.01,2013-03-22 04:50:00,
2013-03-22 15:55:00,87.6,64.3,29.62,WNW,292,6.0,6.0,46,0.00,,---,0.00,VWS V14.01,2013-03-22 04:55:00,
2013-03-22 16:00:00,87.6,64.9,29.62,WNW,292,4.3,4.3,47,0.00,,---,0.00,VWS V14.01,2013-03-22 05:00:00,
2013-03-22 16:05:00,87.6,64.9,29.62,North,0,4.9,4.9,47,0.00,,---,0.00,VWS V14.01,2013-03-22 05:05:00,
2013-03-22 16:10:00,87.3,64.6,29.62,West,270,5.8,5.8,47,0.00,,---,0.00,VWS V14.01,2013-03-22 05:10:00,
2013-03-22 16:15:00,87.1,64.4,29.62,West,270,5.4,5.4,47,0.00,,---,0.00,VWS V14.01,2013-03-22 05:15:00,
2013-03-22 16:20:00,87.1,64.4,29.65,North,0,3.1,3.1,47,0.00,,---,0.00,VWS V14.01,2013-03-22 05:20:00,
2013-03-22 16:25:00,86.9,64.9,29.65,WNW,292,3.8,3.8,48,0.00,,---,0.00,VWS V14.01,2013-03-22 05:25:00,
2013-03-22 16:30:00,86.5,64.5,29.65,NNW,338,6.0,6.0,48,0.00,,---,0.00,VWS V14.01,2013-03-22 05:30:00,
2013-03-22 16:35:00,86.2,64.8,29.65,NNW,338,11.0,11.0,49,0.00,,---,0.00,VWS V14.01,2013-03-22 05:35:00,
2013-03-22 16:40:00,86.0,64.0,29.65,NW,315,6.5,6.5,48,0.00,,---,0.00,VWS V14.01,2013-03-22 05:40:00,
2013-03-22 16:45:00,85.8,63.9,29.65,NW,315,5.8,5.8,48,0.00,,---,0.00,VWS V14.01,2013-03-22 05:45:00,
2013-03-22 16:50:00,85.6,64.3,29.62,NW,315,5.6,5.6,49,0.00,,---,0.00,VWS V14.01,2013-03-22 05:50:00,
2013-03-22 16:55:00,85.5,64.1,29.62,NW,315,10.5,10.5,49,0.00,,---,0.00,VWS V14.01,2013-03-22 05:55:00,
2013-03-22 17:00:00,85.1,63.8,29.62,WNW,292,3.6,3.6,49,0.00,,---,0.00,VWS V14.01,2013-03-22 06:00:00,
2013-03-22 17:05:00,85.1,63.8,29.65,WSW,248,7.6,7.6,49,0.00,,---,0.00,VWS V14.01,2013-03-22 06:05:00,
2013-03-22 17:10:00,84.9,64.2,29.65,WNW,292,9.4,9.4,50,0.00,,---,0.00,VWS V14.01,2013-03-22 06:10:00,
2013-03-22 17:15:00,84.7,64.1,29.65,West,270,6.5,6.5,50,0.00,,---,0.00,VWS V14.01,2013-03-22 06:15:00,
2013-03-22 17:20:00,84.6,63.9,29.65,West,270,14.5,14.5,50,0.00,,---,0.00,VWS V14.01,2013-03-22 06:20:00,
2013-03-22 17:25:00,84.4,63.7,29.65,NW,315,5.4,7.8,50,0.00,,---,0.00,VWS V14.01,2013-03-22 06:25:00,
2013-03-22 17:30:00,84.4,63.7,29.65,NW,315,6.5,6.5,50,0.00,,---,0.00,VWS V14.01,2013-03-22 06:30:00,
2013-03-22 17:35:00,84.0,63.4,29.65,WSW,248,6.3,6.3,50,0.00,,---,0.00,VWS V14.01,2013-03-22 06:35:00,
2013-03-22 17:40:00,84.0,64.0,29.65,NW,315,7.6,7.6,51,0.00,,---,0.00,VWS V14.01,2013-03-22 06:40:00,
2013-03-22 17:45:00,83.8,63.8,29.65,NW,315,8.7,8.7,51,0.00,,---,0.00,VWS V14.01,2013-03-22 06:45:00,
2013-03-22 17:50:00,83.7,63.6,29.62,West,270,2.0,4.3,51,0.00,,---,0.00,VWS V14.01,2013-03-22 06:50:00,
2013-03-22 17:55:00,83.5,63.5,29.62,NNW,338,6.5,6.5,51,0.00,,---,0.00,VWS V14.01,2013-03-22 06:55:00,
2013-03-22 18:00:00,83.3,63.3,29.62,NW,315,5.8,5.8,51,0.00,,---,0.00,VWS V14.01,2013-03-22 07:00:00,
2013-03-22 18:05:00,83.1,63.1,29.62,WNW,292,7.6,7.6,51,0.00,,---,0.00,VWS V14.01,2013-03-22 07:05:00,
2013-03-22 18:10:00,82.9,63.0,29.62,West,270,3.8,3.8,51,0.00,,---,0.00,VWS V14.01,2013-03-22 07:10:00,
2013-03-22 18:15:00,82.8,62.8,29.62,NNW,338,5.8,5.8,51,0.00,,---,0.00,VWS V14.01,2013-03-22 07:15:00,
2013-03-22 18:20:00,82.8,63.4,29.65,NW,315,10.1,10.1,52,0.00,,---,0.00,VWS V14.01,2013-03-22 07:20:00,
2013-03-22 18:25:00,82.6,63.2,29.65,NW,315,7.6,7.6,52,0.00,,---,0.00,VWS V14.01,2013-03-22 07:25:00,
2013-03-22 18:30:00,82.4,63.0,29.65,NW,315,6.3,8.5,52,0.00,,---,0.00,VWS V14.01,2013-03-22 07:30:00,
2013-03-22 18:35:00,82.2,62.9,29.65,NW,315,9.8,9.8,52,0.00,,---,0.00,VWS V14.01,2013-03-22 07:35:00,
2013-03-22 18:40:00,82.2,63.4,29.65,NW,315,6.0,6.0,53,0.00,,---,0.00,VWS V14.01,2013-03-22 07:40:00,
2013-03-22 18:45:00,82.0,63.2,29.65,West,270,6.3,6.3,53,0.00,,---,0.00,VWS V14.01,2013-03-22 07:45:00,
2013-03-22 18:50:00,81.9,63.1,29.65,NW,315,8.5,8.5,53,0.00,,---,0.00,VWS V14.01,2013-03-22 07:50:00,
2013-03-22 18:55:00,81.7,62.9,29.65,West,270,7.8,7.8,53,0.00,,---,0.00,VWS V14.01,2013-03-22 07:55:00,
2013-03-22 19:00:00,81.7,62.9,29.65,West,270,4.3,4.3,53,0.00,,---,0.00,VWS V14.01,2013-03-22 08:00:00,
2013-03-22 19:05:00,81.5,62.7,29.62,NW,315,10.5,10.5,53,0.00,,---,0.00,VWS V14.01,2013-03-22 08:05:00,
2013-03-22 19:10:00,81.3,63.1,29.62,NW,315,6.5,6.5,54,0.00,,---,0.00,VWS V14.01,2013-03-22 08:10:00,
2013-03-22 19:15:00,81.3,63.1,29.62,NNW,338,5.8,5.8,54,0.00,,---,0.00,VWS V14.01,2013-03-22 08:15:00,
2013-03-22 19:20:00,81.1,62.9,29.62,NW,315,11.0,11.0,54,0.00,,---,0.00,VWS V14.01,2013-03-22 08:20:00,
2013-03-22 19:25:00,81.1,62.9,29.62,NW,315,11.0,11.0,54,0.00,,---,0.00,VWS V14.01,2013-03-22 08:25:00,
2013-03-22 19:30:00,81.0,62.8,29.62,West,270,8.7,8.7,54,0.00,,---,0.00,VWS V14.01,2013-03-22 08:30:00,
2013-03-22 19:35:00,81.0,62.8,29.65,NW,315,7.4,7.4,54,0.00,,---,0.00,VWS V14.01,2013-03-22 08:35:00,
2013-03-22 19:40:00,80.8,62.6,29.65,North,0,4.3,4.3,54,0.00,,---,0.00,VWS V14.01,2013-03-22 08:40:00,
2013-03-22 19:45:00,80.8,62.6,29.65,NW,315,3.4,3.4,54,0.00,,---,0.00,VWS V14.01,2013-03-22 08:45:00,
2013-03-22 19:50:00,80.6,62.4,29.65,NNW,338,5.4,5.4,54,0.00,,---,0.00,VWS V14.01,2013-03-22 08:50:00,
2013-03-22 19:55:00,80.6,62.4,29.65,NW,315,3.1,10.1,54,0.00,,---,0.00,VWS V14.01,2013-03-22 08:55:00,
2013-03-22 20:00:00,80.4,62.8,29.65,NW,315,7.8,7.8,55,0.00,,---,0.00,VWS V14.01,2013-03-22 09:00:00,
2013-03-22 20:05:00,80.4,62.8,29.65,WNW,292,2.0,5.4,55,0.00,,---,0.00,VWS V14.01,2013-03-22 09:05:00,
2013-03-22 20:10:00,80.4,62.8,29.65,WNW,292,2.7,2.7,55,0.00,,---,0.00,VWS V14.01,2013-03-22 09:10:00,
2013-03-22 20:15:00,80.2,62.6,29.65,NW,315,3.1,3.1,55,0.00,,---,0.00,VWS V14.01,2013-03-22 09:15:00,
2013-03-22 20:20:00,80.2,63.1,29.65,NNW,338,5.4,5.4,56,0.00,,---,0.00,VWS V14.01,2013-03-22 09:20:00,
2013-03-22 20:25:00,80.2,63.1,29.65,WNW,292,3.6,3.6,56,0.00,,---,0.00,VWS V14.01,2013-03-22 09:25:00,
2013-03-22 20:30:00,80.1,63.0,29.65,NW,315,5.8,5.8,56,0.00,,---,0.00,VWS V14.01,2013-03-22 09:30:00,
2013-03-22 20:35:00,80.1,63.0,29.68,North,0,2.0,2.0,56,0.00,,---,0.00,VWS V14.01,2013-03-22 09:35:00,
2013-03-22 20:40:00,79.9,62.8,29.68,WNW,292,3.6,5.8,56,0.00,,---,0.00,VWS V14.01,2013-03-22 09:40:00,
2013-03-22 20:45:00,79.9,62.8,29.68,West,270,3.1,3.1,56,0.00,,---,0.00,VWS V14.01,2013-03-22 09:45:00,
2013-03-22 20:50:00,79.9,62.8,29.68,WNW,292,7.2,8.7,56,0.00,,---,0.00,VWS V14.01,2013-03-22 09:50:00,
2013-03-22 20:55:00,79.9,62.8,29.68,West,270,5.8,5.8,56,0.00,,---,0.00,VWS V14.01,2013-03-22 09:55:00,
2013-03-22 21:00:00,79.7,63.1,29.68,NW,315,4.9,4.9,57,0.00,,---,0.00,VWS V14.01,2013-03-22 10:00:00,
2013-03-22 21:05:00,79.9,63.3,29.68,NNW,338,8.1,8.1,57,0.00,,---,0.00,VWS V14.01,2013-03-22 10:05:00,
2013-03-22 21:10:00,80.1,63.0,29.68,WNW,292,4.9,4.9,56,0.00,,---,0.00,VWS V14.01,2013-03-22 10:10:00,
2013-03-22 21:15:00,79.9,62.8,29.68,NW,315,4.3,5.8,56,0.00,,---,0.00,VWS V14.01,2013-03-22 10:15:00,
2013-03-22 21:20:00,79.9,62.8,29.68,NW,315,5.8,5.8,56,0.00,,---,0.00,VWS V14.01,2013-03-22 10:20:00,
2013-03-22 21:25:00,79.9,62.8,29.68,NW,315,5.6,5.6,56,0.00,,---,0.00,VWS V14.01,2013-03-22 10:25:00,
2013-03-22 21:30:00,79.9,62.8,29.68,West,270,6.0,6.0,56,0.00,,---,0.00,VWS V14.01,2013-03-22 10:30:00,
2013-03-22 21:35:00,79.9,62.8,29.68,NW,315,6.5,6.5,56,0.00,,---,0.00,VWS V14.01,2013-03-22 10:35:00,
2013-03-22 21:40:00,79.9,62.8,29.68,WNW,292,5.6,5.6,56,0.00,,---,0.00,VWS V14.01,2013-03-22 10:40:00,
2013-03-22 21:45:00,79.9,62.8,29.68,NW,315,4.9,4.9,56,0.00,,---,0.00,VWS V14.01,2013-03-22 10:45:00,
2013-03-22 21:50:00,79.7,62.6,29.68,NNW,338,4.0,4.3,56,0.00,,---,0.00,VWS V14.01,2013-03-22 10:50:00,
2013-03-22 21:55:00,79.7,62.1,29.68,SSW,202,1.6,1.6,55,0.00,,---,0.00,VWS V14.01,2013-03-22 10:55:00,
2013-03-22 22:00:00,79.7,62.1,29.68,NW,315,2.5,3.6,55,0.00,,---,0.00,VWS V14.01,2013-03-22 11:00:00,
2013-03-22 22:05:00,79.5,62.0,29.68,NW,315,2.2,4.7,55,0.00,,---,0.00,VWS V14.01,2013-03-22 11:05:00,
2013-03-22 22:10:00,79.5,61.4,29.68,West,270,5.4,5.4,54,0.00,,---,0.00,VWS V14.01,2013-03-22 11:10:00,
2013-03-22 22:15:00,79.3,61.3,29.68,NW,315,6.3,6.3,54,0.00,,---,0.00,VWS V14.01,2013-03-22 11:15:00,
2013-03-22 22:20:00,79.3,61.3,29.65,NW,315,2.7,4.0,54,0.00,,---,0.00,VWS V14.01,2013-03-22 11:20:00,
2013-03-22 22:25:00,79.3,61.3,29.65,NW,315,8.7,8.7,54,0.00,,---,0.00,VWS V14.01,2013-03-22 11:25:00,
2013-03-22 22:30:00,79.3,61.3,29.65,West,270,6.3,6.3,54,0.00,,---,0.00,VWS V14.01,2013-03-22 11:30:00,
2013-03-22 22:35:00,79.2,61.1,29.65,NW,315,6.3,6.3,54,0.00,,---,0.00,VWS V14.01,2013-03-22 11:35:00,
2013-03-22 22:40:00,79.2,61.1,29.65,NW,315,2.7,2.7,54,0.00,,---,0.00,VWS V14.01,2013-03-22 11:40:00,
2013-03-22 22:45:00,79.0,60.9,29.65,North,0,4.7,4.7,54,0.00,,---,0.00,VWS V14.01,2013-03-22 11:45:00,
2013-03-22 22:50:00,79.0,61.5,29.68,WNW,292,4.3,4.3,55,0.00,,---,0.00,VWS V14.01,2013-03-22 11:50:00,
2013-03-22 22:55:00,78.8,61.3,29.68,NW,315,3.8,3.8,55,0.00,,---,0.00,VWS V14.01,2013-03-22 11:55:00,
2013-03-22 23:00:00,78.8,60.8,29.68,West,270,5.4,5.4,54,0.00,,---,0.00,VWS V14.01,2013-03-22 12:00:00,
2013-03-22 23:05:00,78.8,60.8,29.68,WNW,292,3.1,5.6,54,0.00,,---,0.00,VWS V14.01,2013-03-22 12:05:00,
2013-03-22 23:10:00,78.8,60.8,29.68,NW,315,4.9,4.9,54,0.00,,---,0.00,VWS V14.01,2013-03-22 12:10:00,
2013-03-22 23:15:00,78.6,60.6,29.68,WNW,292,2.5,2.5,54,0.00,,---,0.00,VWS V14.01,2013-03-22 12:15:00,
2013-03-22 23:20:00,78.4,60.4,29.68,NNW,338,1.3,2.2,54,0.00,,---,0.00,VWS V14.01,2013-03-22 12:20:00,
2013-03-22 23:25:00,78.4,59.9,29.68,North,0,4.9,4.9,53,0.00,,---,0.00,VWS V14.01,2013-03-22 12:25:00,
2013-03-22 23:30:00,78.4,59.9,29.68,SW,225,2.9,4.0,53,0.00,,---,0.00,VWS V14.01,2013-03-22 12:30:00,
2013-03-22 23:35:00,78.3,59.7,29.68,NNW,338,0.0,1.6,53,0.00,,---,0.00,VWS V14.01,2013-03-22 12:35:00,
2013-03-22 23:40:00,78.3,59.7,29.68,NW,315,2.7,3.1,53,0.00,,---,0.00,VWS V14.01,2013-03-22 12:40:00,
2013-03-22 23:45:00,78.3,59.2,29.68,NW,315,1.1,1.1,52,0.00,,---,0.00,VWS V14.01,2013-03-22 12:45:00,
2013-03-22 23:50:00,78.3,59.2,29.68,NNE,22,1.3,2.0,52,0.00,,---,0.00,VWS V14.01,2013-03-22 12:50:00,
2013-03-22 23:55:00,78.1,59.0,29.68,NNW,338,5.6,5.6,52,0.00,,---,0.00,VWS V14.01,2013-03-22 12:55:00,